sensor_id;sensor_type;location;lat;lon;timestamp;temperature;humidity
76211;DHT22;65003;49.518;11.280;2023-11-19T00:00:49;7.50;99.90
76211;DHT22;65003;49.518;11.280;2023-11-19T00:03:15;7.50;99.90
76211;DHT22;65003;49.518;11.280;2023-11-19T00:05:42;7.60;99.90
76211;DHT22;65003;49.518;11.280;2023-11-19T00:08:08;7.50;99.90
76211;DHT22;65003;49.518;11.280;2023-11-19T00:10:35;7.40;99.90
76211;DHT22;65003;49.518;11.280;2023-11-19T00:13:02;7.40;99.90
76211;DHT22;65003;49.518;11.280;2023-11-19T00:15:29;7.50;99.90
76211;DHT22;65003;49.518;11.280;2023-11-19T00:17:56;7.70;99.90
76211;DHT22;65003;49.518;11.280;2023-11-19T00:20:22;7.80;99.90
76211;DHT22;65003;49.518;11.280;2023-11-19T00:22:49;7.80;99.90
76211;DHT22;65003;49.518;11.280;2023-11-19T00:25:18;7.70;99.90
76211;DHT22;65003;49.518;11.280;2023-11-19T00:27:45;7.70;99.90
76211;DHT22;65003;49.518;11.280;2023-11-19T00:30:11;7.70;99.90
76211;DHT22;65003;49.518;11.280;2023-11-19T00:32:38;7.70;99.90
76211;DHT22;65003;49.518;11.280;2023-11-19T00:35:05;7.70;99.90
76211;DHT22;65003;49.518;11.280;2023-11-19T00:37:31;7.70;99.90
76211;DHT22;65003;49.518;11.280;2023-11-19T00:39:58;7.70;99.90
76211;DHT22;65003;49.518;11.280;2023-11-19T00:42:25;7.70;99.90
76211;DHT22;65003;49.518;11.280;2023-11-19T00:44:51;7.70;99.90
76211;DHT22;65003;49.518;11.280;2023-11-19T00:47:18;7.70;99.90
76211;DHT22;65003;49.518;11.280;2023-11-19T00:49:47;7.70;99.90
76211;DHT22;65003;49.518;11.280;2023-11-19T00:52:15;7.70;99.90
76211;DHT22;65003;49.518;11.280;2023-11-19T00:54:41;7.70;99.90
76211;DHT22;65003;49.518;11.280;2023-11-19T00:57:08;7.70;99.90
76211;DHT22;65003;49.518;11.280;2023-11-19T00:59:34;7.70;99.90
76211;DHT22;65003;49.518;11.280;2023-11-19T01:02:01;7.80;99.90
76211;DHT22;65003;49.518;11.280;2023-11-19T01:04:27;7.80;99.90
76211;DHT22;65003;49.518;11.280;2023-11-19T01:06:54;7.70;99.90
76211;DHT22;65003;49.518;11.280;2023-11-19T01:09:21;7.70;99.90
76211;DHT22;65003;49.518;11.280;2023-11-19T01:11:47;7.70;99.90
76211;DHT22;65003;49.518;11.280;2023-11-19T01:14:14;7.70;99.90
76211;DHT22;65003;49.518;11.280;2023-11-19T01:16:40;7.70;99.90
76211;DHT22;65003;49.518;11.280;2023-11-19T01:19:07;7.70;99.90
76211;DHT22;65003;49.518;11.280;2023-11-19T01:21:34;7.30;99.90
76211;DHT22;65003;49.518;11.280;2023-11-19T01:24:00;7.70;99.90
76211;DHT22;65003;49.518;11.280;2023-11-19T01:26:27;7.80;99.90
76211;DHT22;65003;49.518;11.280;2023-11-19T01:28:53;7.80;99.90
76211;DHT22;65003;49.518;11.280;2023-11-19T01:31:20;7.90;99.90
76211;DHT22;65003;49.518;11.280;2023-11-19T01:33:47;7.90;99.90
76211;DHT22;65003;49.518;11.280;2023-11-19T01:36:13;7.90;99.90
76211;DHT22;65003;49.518;11.280;2023-11-19T01:38:40;7.90;99.90
76211;DHT22;65003;49.518;11.280;2023-11-19T01:41:06;7.90;99.90
76211;DHT22;65003;49.518;11.280;2023-11-19T01:43:35;7.90;99.90
76211;DHT22;65003;49.518;11.280;2023-11-19T01:46:02;7.90;99.90
76211;DHT22;65003;49.518;11.280;2023-11-19T01:48:30;7.90;99.90
76211;DHT22;65003;49.518;11.280;2023-11-19T01:50:56;7.90;99.90
76211;DHT22;65003;49.518;11.280;2023-11-19T01:53:23;8.00;99.90
76211;DHT22;65003;49.518;11.280;2023-11-19T01:55:49;7.90;99.90
76211;DHT22;65003;49.518;11.280;2023-11-19T01:58:16;8.00;99.90
76211;DHT22;65003;49.518;11.280;2023-11-19T02:00:44;8.10;99.90
76211;DHT22;65003;49.518;11.280;2023-11-19T02:03:09;8.10;99.90
76211;DHT22;65003;49.518;11.280;2023-11-19T02:05:36;8.00;99.90
76211;DHT22;65003;49.518;11.280;2023-11-19T02:08:03;7.80;99.90
76211;DHT22;65003;49.518;11.280;2023-11-19T02:10:29;7.80;99.90
76211;DHT22;65003;49.518;11.280;2023-11-19T02:12:56;7.70;99.90
76211;DHT22;65003;49.518;11.280;2023-11-19T02:15:22;7.70;99.90
76211;DHT22;65003;49.518;11.280;2023-11-19T02:17:49;7.70;99.90
76211;DHT22;65003;49.518;11.280;2023-11-19T02:20:16;7.60;99.90
76211;DHT22;65003;49.518;11.280;2023-11-19T02:22:42;7.60;99.90
76211;DHT22;65003;49.518;11.280;2023-11-19T02:25:12;7.70;99.90
76211;DHT22;65003;49.518;11.280;2023-11-19T02:27:54;7.70;99.90
76211;DHT22;65003;49.518;11.280;2023-11-19T02:30:21;7.80;99.90
76211;DHT22;65003;49.518;11.280;2023-11-19T02:32:48;7.80;99.90
76211;DHT22;65003;49.518;11.280;2023-11-19T02:35:14;7.90;99.90
76211;DHT22;65003;49.518;11.280;2023-11-19T02:37:41;8.00;99.90
76211;DHT22;65003;49.518;11.280;2023-11-19T02:40:08;8.00;99.90
76211;DHT22;65003;49.518;11.280;2023-11-19T02:42:34;8.10;99.90
76211;DHT22;65003;49.518;11.280;2023-11-19T02:45:01;8.10;99.90
76211;DHT22;65003;49.518;11.280;2023-11-19T02:47:27;8.20;99.90
76211;DHT22;65003;49.518;11.280;2023-11-19T02:49:54;8.10;99.90
76211;DHT22;65003;49.518;11.280;2023-11-19T02:52:21;8.10;99.90
76211;DHT22;65003;49.518;11.280;2023-11-19T02:54:48;8.00;99.90
76211;DHT22;65003;49.518;11.280;2023-11-19T02:57:15;7.80;99.90
76211;DHT22;65003;49.518;11.280;2023-11-19T02:59:41;7.80;99.90
76211;DHT22;65003;49.518;11.280;2023-11-19T03:02:08;7.80;99.90
76211;DHT22;65003;49.518;11.280;2023-11-19T03:04:37;7.80;99.90
76211;DHT22;65003;49.518;11.280;2023-11-19T03:07:06;7.80;99.90
76211;DHT22;65003;49.518;11.280;2023-11-19T03:09:33;7.90;99.90
76211;DHT22;65003;49.518;11.280;2023-11-19T03:12:00;7.90;99.90
76211;DHT22;65003;49.518;11.280;2023-11-19T03:14:26;8.00;99.90
76211;DHT22;65003;49.518;11.280;2023-11-19T03:16:53;7.90;99.90
76211;DHT22;65003;49.518;11.280;2023-11-19T03:19:19;7.90;99.90
76211;DHT22;65003;49.518;11.280;2023-11-19T03:21:46;7.90;99.90
76211;DHT22;65003;49.518;11.280;2023-11-19T03:24:13;7.90;99.90
76211;DHT22;65003;49.518;11.280;2023-11-19T03:26:39;7.80;99.90
76211;DHT22;65003;49.518;11.280;2023-11-19T03:29:06;7.80;99.90
76211;DHT22;65003;49.518;11.280;2023-11-19T03:31:32;7.70;99.90
76211;DHT22;65003;49.518;11.280;2023-11-19T03:33:59;7.70;99.90
76211;DHT22;65003;49.518;11.280;2023-11-19T03:36:31;7.60;99.90
76211;DHT22;65003;49.518;11.280;2023-11-19T03:38:52;7.50;99.90
76211;DHT22;65003;49.518;11.280;2023-11-19T03:41:19;7.60;99.90
76211;DHT22;65003;49.518;11.280;2023-11-19T03:43:45;7.60;99.90
76211;DHT22;65003;49.518;11.280;2023-11-19T03:46:19;7.60;99.90
76211;DHT22;65003;49.518;11.280;2023-11-19T03:48:48;7.60;99.90
76211;DHT22;65003;49.518;11.280;2023-11-19T03:51:13;7.60;99.90
76211;DHT22;65003;49.518;11.280;2023-11-19T03:53:42;7.40;99.90
76211;DHT22;65003;49.518;11.280;2023-11-19T03:56:08;7.20;99.90
76211;DHT22;65003;49.518;11.280;2023-11-19T03:58:34;7.10;99.90
76211;DHT22;65003;49.518;11.280;2023-11-19T04:01:01;7.10;99.90
76211;DHT22;65003;49.518;11.280;2023-11-19T04:03:28;7.20;99.90
76211;DHT22;65003;49.518;11.280;2023-11-19T04:05:54;7.30;99.90
76211;DHT22;65003;49.518;11.280;2023-11-19T04:08:21;7.30;99.90
76211;DHT22;65003;49.518;11.280;2023-11-19T04:10:47;7.40;99.90
76211;DHT22;65003;49.518;11.280;2023-11-19T04:13:14;7.50;99.90
76211;DHT22;65003;49.518;11.280;2023-11-19T04:15:41;7.60;99.90
76211;DHT22;65003;49.518;11.280;2023-11-19T04:18:07;7.70;99.90
76211;DHT22;65003;49.518;11.280;2023-11-19T04:20:34;7.80;99.90
76211;DHT22;65003;49.518;11.280;2023-11-19T04:23:00;7.80;99.90
76211;DHT22;65003;49.518;11.280;2023-11-19T04:25:27;7.90;99.90
76211;DHT22;65003;49.518;11.280;2023-11-19T04:27:53;8.00;99.90
76211;DHT22;65003;49.518;11.280;2023-11-19T04:30:20;8.00;99.90
76211;DHT22;65003;49.518;11.280;2023-11-19T04:32:47;8.10;99.90
76211;DHT22;65003;49.518;11.280;2023-11-19T04:35:13;8.10;99.90
76211;DHT22;65003;49.518;11.280;2023-11-19T04:37:41;8.20;99.90
76211;DHT22;65003;49.518;11.280;2023-11-19T04:40:07;8.30;99.90
76211;DHT22;65003;49.518;11.280;2023-11-19T04:42:33;8.40;99.90
76211;DHT22;65003;49.518;11.280;2023-11-19T04:45:00;8.50;99.90
76211;DHT22;65003;49.518;11.280;2023-11-19T04:47:26;8.50;99.90
76211;DHT22;65003;49.518;11.280;2023-11-19T04:49:53;8.60;99.90
76211;DHT22;65003;49.518;11.280;2023-11-19T04:52:20;8.60;99.90
76211;DHT22;65003;49.518;11.280;2023-11-19T04:54:46;8.60;99.90
76211;DHT22;65003;49.518;11.280;2023-11-19T04:57:13;8.60;99.90
76211;DHT22;65003;49.518;11.280;2023-11-19T04:59:39;8.60;99.90
76211;DHT22;65003;49.518;11.280;2023-11-19T05:02:06;8.70;99.90
76211;DHT22;65003;49.518;11.280;2023-11-19T05:04:33;8.70;99.90
76211;DHT22;65003;49.518;11.280;2023-11-19T05:06:59;8.70;99.90
76211;DHT22;65003;49.518;11.280;2023-11-19T05:09:26;8.70;99.90
76211;DHT22;65003;49.518;11.280;2023-11-19T05:11:52;8.80;99.90
76211;DHT22;65003;49.518;11.280;2023-11-19T05:14:19;8.70;99.90
76211;DHT22;65003;49.518;11.280;2023-11-19T05:16:46;8.80;99.90
76211;DHT22;65003;49.518;11.280;2023-11-19T05:19:12;8.80;99.90
76211;DHT22;65003;49.518;11.280;2023-11-19T05:21:41;8.80;99.90
76211;DHT22;65003;49.518;11.280;2023-11-19T05:24:05;8.90;99.90
76211;DHT22;65003;49.518;11.280;2023-11-19T05:26:32;8.80;99.90
76211;DHT22;65003;49.518;11.280;2023-11-19T05:28:59;8.80;99.90
76211;DHT22;65003;49.518;11.280;2023-11-19T05:31:25;8.80;99.90
76211;DHT22;65003;49.518;11.280;2023-11-19T05:33:52;8.80;99.90
76211;DHT22;65003;49.518;11.280;2023-11-19T05:36:18;8.80;99.90
76211;DHT22;65003;49.518;11.280;2023-11-19T05:38:45;8.80;99.90
76211;DHT22;65003;49.518;11.280;2023-11-19T05:41:12;8.80;99.90
76211;DHT22;65003;49.518;11.280;2023-11-19T05:43:38;8.80;99.90
76211;DHT22;65003;49.518;11.280;2023-11-19T05:46:05;8.90;99.90
76211;DHT22;65003;49.518;11.280;2023-11-19T05:48:31;8.90;99.90
76211;DHT22;65003;49.518;11.280;2023-11-19T05:50:58;8.90;99.90
76211;DHT22;65003;49.518;11.280;2023-11-19T05:53:25;8.90;99.90
76211;DHT22;65003;49.518;11.280;2023-11-19T05:55:51;8.90;99.90
76211;DHT22;65003;49.518;11.280;2023-11-19T05:58:24;8.90;99.90
76211;DHT22;65003;49.518;11.280;2023-11-19T06:00:50;8.90;99.90
76211;DHT22;65003;49.518;11.280;2023-11-19T06:03:16;9.00;99.90
76211;DHT22;65003;49.518;11.280;2023-11-19T06:05:46;9.00;99.90
76211;DHT22;65003;49.518;11.280;2023-11-19T06:08:12;9.10;99.90
76211;DHT22;65003;49.518;11.280;2023-11-19T06:10:40;9.10;99.90
76211;DHT22;65003;49.518;11.280;2023-11-19T06:13:06;9.10;99.90
76211;DHT22;65003;49.518;11.280;2023-11-19T06:15:33;9.20;99.90
76211;DHT22;65003;49.518;11.280;2023-11-19T06:17:59;9.20;99.90
76211;DHT22;65003;49.518;11.280;2023-11-19T06:20:25;9.20;99.90
76211;DHT22;65003;49.518;11.280;2023-11-19T06:22:52;9.20;99.90
76211;DHT22;65003;49.518;11.280;2023-11-19T06:25:19;9.20;99.90
76211;DHT22;65003;49.518;11.280;2023-11-19T06:27:45;9.20;99.90
76211;DHT22;65003;49.518;11.280;2023-11-19T06:30:12;9.30;99.90
76211;DHT22;65003;49.518;11.280;2023-11-19T06:32:38;9.30;99.90
76211;DHT22;65003;49.518;11.280;2023-11-19T06:35:05;9.30;99.90
76211;DHT22;65003;49.518;11.280;2023-11-19T06:37:32;9.30;99.90
76211;DHT22;65003;49.518;11.280;2023-11-19T06:39:59;9.30;99.90
76211;DHT22;65003;49.518;11.280;2023-11-19T06:42:25;9.40;99.90
76211;DHT22;65003;49.518;11.280;2023-11-19T06:44:52;9.40;99.90
76211;DHT22;65003;49.518;11.280;2023-11-19T06:47:18;9.40;99.90
76211;DHT22;65003;49.518;11.280;2023-11-19T06:49:45;9.40;99.90
76211;DHT22;65003;49.518;11.280;2023-11-19T06:52:11;9.40;99.90
76211;DHT22;65003;49.518;11.280;2023-11-19T06:54:39;9.50;99.90
76211;DHT22;65003;49.518;11.280;2023-11-19T06:57:05;9.50;99.90
76211;DHT22;65003;49.518;11.280;2023-11-19T06:59:31;9.50;99.90
76211;DHT22;65003;49.518;11.280;2023-11-19T07:01:58;9.60;99.90
76211;DHT22;65003;49.518;11.280;2023-11-19T07:04:25;9.60;99.90
76211;DHT22;65003;49.518;11.280;2023-11-19T07:06:51;9.60;99.90
76211;DHT22;65003;49.518;11.280;2023-11-19T07:09:18;9.60;99.90
76211;DHT22;65003;49.518;11.280;2023-11-19T07:11:44;9.70;99.90
76211;DHT22;65003;49.518;11.280;2023-11-19T07:14:11;9.70;99.90
76211;DHT22;65003;49.518;11.280;2023-11-19T07:16:37;9.70;99.90
76211;DHT22;65003;49.518;11.280;2023-11-19T07:19:05;9.70;99.90
76211;DHT22;65003;49.518;11.280;2023-11-19T07:21:31;9.70;99.90
76211;DHT22;65003;49.518;11.280;2023-11-19T07:23:58;9.80;99.90
76211;DHT22;65003;49.518;11.280;2023-11-19T07:26:25;9.80;99.90
76211;DHT22;65003;49.518;11.280;2023-11-19T07:28:51;9.80;99.90
76211;DHT22;65003;49.518;11.280;2023-11-19T07:31:18;9.80;99.90
76211;DHT22;65003;49.518;11.280;2023-11-19T07:33:45;9.90;99.90
76211;DHT22;65003;49.518;11.280;2023-11-19T07:36:11;9.90;99.90
76211;DHT22;65003;49.518;11.280;2023-11-19T07:38:37;9.90;99.90
76211;DHT22;65003;49.518;11.280;2023-11-19T07:41:05;10.00;99.90
76211;DHT22;65003;49.518;11.280;2023-11-19T07:43:31;10.00;99.90
76211;DHT22;65003;49.518;11.280;2023-11-19T07:45:58;10.10;99.90
76211;DHT22;65003;49.518;11.280;2023-11-19T07:48:25;10.10;99.90
76211;DHT22;65003;49.518;11.280;2023-11-19T07:50:52;10.10;99.90
76211;DHT22;65003;49.518;11.280;2023-11-19T07:53:19;10.10;99.90
76211;DHT22;65003;49.518;11.280;2023-11-19T07:55:45;10.10;99.90
76211;DHT22;65003;49.518;11.280;2023-11-19T07:58:12;10.10;99.90
76211;DHT22;65003;49.518;11.280;2023-11-19T08:00:38;10.10;99.90
76211;DHT22;65003;49.518;11.280;2023-11-19T08:03:05;10.20;99.90
76211;DHT22;65003;49.518;11.280;2023-11-19T08:05:31;10.20;99.90
76211;DHT22;65003;49.518;11.280;2023-11-19T08:07:58;10.30;99.90
76211;DHT22;65003;49.518;11.280;2023-11-19T08:10:26;10.30;99.90
76211;DHT22;65003;49.518;11.280;2023-11-19T08:12:51;10.30;99.90
76211;DHT22;65003;49.518;11.280;2023-11-19T08:15:18;10.40;99.90
76211;DHT22;65003;49.518;11.280;2023-11-19T08:17:44;10.50;99.90
76211;DHT22;65003;49.518;11.280;2023-11-19T08:20:11;10.50;99.90
76211;DHT22;65003;49.518;11.280;2023-11-19T08:22:38;10.60;99.90
76211;DHT22;65003;49.518;11.280;2023-11-19T08:25:05;10.60;99.90
76211;DHT22;65003;49.518;11.280;2023-11-19T08:27:31;10.60;99.90
76211;DHT22;65003;49.518;11.280;2023-11-19T08:29:58;10.60;99.90
76211;DHT22;65003;49.518;11.280;2023-11-19T08:32:25;10.60;99.90
76211;DHT22;65003;49.518;11.280;2023-11-19T08:34:51;10.60;99.90
76211;DHT22;65003;49.518;11.280;2023-11-19T08:37:17;10.60;99.90
76211;DHT22;65003;49.518;11.280;2023-11-19T08:39:44;10.60;99.90
76211;DHT22;65003;49.518;11.280;2023-11-19T08:42:11;10.60;99.90
76211;DHT22;65003;49.518;11.280;2023-11-19T08:44:37;10.60;99.90
76211;DHT22;65003;49.518;11.280;2023-11-19T08:47:04;10.70;99.90
76211;DHT22;65003;49.518;11.280;2023-11-19T08:49:31;10.70;99.90
76211;DHT22;65003;49.518;11.280;2023-11-19T08:51:57;10.80;99.90
76211;DHT22;65003;49.518;11.280;2023-11-19T08:54:24;10.80;99.90
76211;DHT22;65003;49.518;11.280;2023-11-19T08:56:50;10.90;99.90
76211;DHT22;65003;49.518;11.280;2023-11-19T08:59:17;10.90;99.90
76211;DHT22;65003;49.518;11.280;2023-11-19T09:01:44;10.90;99.90
76211;DHT22;65003;49.518;11.280;2023-11-19T09:04:10;11.00;99.90
76211;DHT22;65003;49.518;11.280;2023-11-19T09:06:37;11.00;99.90
76211;DHT22;65003;49.518;11.280;2023-11-19T09:09:03;11.10;99.90
76211;DHT22;65003;49.518;11.280;2023-11-19T09:11:30;11.20;99.90
76211;DHT22;65003;49.518;11.280;2023-11-19T09:13:57;11.20;99.90
76211;DHT22;65003;49.518;11.280;2023-11-19T09:16:23;11.30;99.90
76211;DHT22;65003;49.518;11.280;2023-11-19T09:18:50;11.30;99.90
76211;DHT22;65003;49.518;11.280;2023-11-19T09:21:16;11.40;99.90
76211;DHT22;65003;49.518;11.280;2023-11-19T09:23:43;11.50;99.90
76211;DHT22;65003;49.518;11.280;2023-11-19T09:26:09;11.50;99.90
76211;DHT22;65003;49.518;11.280;2023-11-19T09:28:36;11.60;99.90
76211;DHT22;65003;49.518;11.280;2023-11-19T09:31:03;11.70;99.90
76211;DHT22;65003;49.518;11.280;2023-11-19T09:33:29;11.70;99.90
76211;DHT22;65003;49.518;11.280;2023-11-19T09:35:56;11.80;99.90
76211;DHT22;65003;49.518;11.280;2023-11-19T09:38:23;11.90;99.90
76211;DHT22;65003;49.518;11.280;2023-11-19T09:40:49;12.00;99.90
76211;DHT22;65003;49.518;11.280;2023-11-19T09:43:16;12.20;99.90
76211;DHT22;65003;49.518;11.280;2023-11-19T09:45:50;12.30;99.90
76211;DHT22;65003;49.518;11.280;2023-11-19T09:48:17;12.40;99.90
76211;DHT22;65003;49.518;11.280;2023-11-19T09:50:45;12.50;99.90
76211;DHT22;65003;49.518;11.280;2023-11-19T09:53:10;12.50;99.90
76211;DHT22;65003;49.518;11.280;2023-11-19T09:55:37;12.50;99.90
76211;DHT22;65003;49.518;11.280;2023-11-19T09:58:04;12.60;99.90
76211;DHT22;65003;49.518;11.280;2023-11-19T10:00:30;12.60;99.90
76211;DHT22;65003;49.518;11.280;2023-11-19T10:02:57;12.50;99.90
76211;DHT22;65003;49.518;11.280;2023-11-19T10:05:23;12.60;99.90
76211;DHT22;65003;49.518;11.280;2023-11-19T10:07:50;12.70;99.90
76211;DHT22;65003;49.518;11.280;2023-11-19T10:10:17;13.40;99.90
76211;DHT22;65003;49.518;11.280;2023-11-19T10:12:44;13.70;99.90
76211;DHT22;65003;49.518;11.280;2023-11-19T10:15:12;13.70;99.90
76211;DHT22;65003;49.518;11.280;2023-11-19T10:17:36;13.80;99.90
76211;DHT22;65003;49.518;11.280;2023-11-19T10:20:03;13.80;99.90
76211;DHT22;65003;49.518;11.280;2023-11-19T10:22:30;13.70;99.90
76211;DHT22;65003;49.518;11.280;2023-11-19T10:24:57;13.70;99.90
76211;DHT22;65003;49.518;11.280;2023-11-19T10:27:24;13.70;99.90
76211;DHT22;65003;49.518;11.280;2023-11-19T10:29:51;13.70;99.90
76211;DHT22;65003;49.518;11.280;2023-11-19T10:32:17;13.70;99.90
76211;DHT22;65003;49.518;11.280;2023-11-19T10:34:44;13.70;99.90
76211;DHT22;65003;49.518;11.280;2023-11-19T10:39:53;13.60;99.90
76211;DHT22;65003;49.518;11.280;2023-11-19T10:42:20;13.60;99.90
76211;DHT22;65003;49.518;11.280;2023-11-19T10:44:46;13.60;99.90
76211;DHT22;65003;49.518;11.280;2023-11-19T10:47:14;13.60;99.90
76211;DHT22;65003;49.518;11.280;2023-11-19T10:49:40;13.60;99.90
76211;DHT22;65003;49.518;11.280;2023-11-19T10:52:08;13.50;99.90
76211;DHT22;65003;49.518;11.280;2023-11-19T10:54:34;13.50;99.90
76211;DHT22;65003;49.518;11.280;2023-11-19T10:57:02;13.50;99.90
76211;DHT22;65003;49.518;11.280;2023-11-19T10:59:29;13.40;99.90
76211;DHT22;65003;49.518;11.280;2023-11-19T11:01:55;13.40;99.90
76211;DHT22;65003;49.518;11.280;2023-11-19T11:04:23;13.40;99.90
76211;DHT22;65003;49.518;11.280;2023-11-19T11:06:50;13.40;99.90
76211;DHT22;65003;49.518;11.280;2023-11-19T11:09:16;13.40;99.90
76211;DHT22;65003;49.518;11.280;2023-11-19T11:11:46;13.40;99.90
76211;DHT22;65003;49.518;11.280;2023-11-19T11:14:13;13.40;99.90
76211;DHT22;65003;49.518;11.280;2023-11-19T11:16:42;13.60;99.90
76211;DHT22;65003;49.518;11.280;2023-11-19T11:19:09;13.60;99.90
76211;DHT22;65003;49.518;11.280;2023-11-19T11:21:35;13.80;99.90
76211;DHT22;65003;49.518;11.280;2023-11-19T11:24:16;14.10;99.90
76211;DHT22;65003;49.518;11.280;2023-11-19T11:26:49;14.30;99.90
76211;DHT22;65003;49.518;11.280;2023-11-19T11:29:14;14.40;99.90
76211;DHT22;65003;49.518;11.280;2023-11-19T11:31:58;14.30;99.90
76211;DHT22;65003;49.518;11.280;2023-11-19T11:34:31;14.50;99.90
76211;DHT22;65003;49.518;11.280;2023-11-19T11:37:01;15.00;99.90
76211;DHT22;65003;49.518;11.280;2023-11-19T11:39:24;15.30;99.90
76211;DHT22;65003;49.518;11.280;2023-11-19T11:45:07;15.60;99.90
76211;DHT22;65003;49.518;11.280;2023-11-19T11:47:15;15.80;99.90
76211;DHT22;65003;49.518;11.280;2023-11-19T11:49:42;16.10;99.90
76211;DHT22;65003;49.518;11.280;2023-11-19T11:52:09;16.10;99.90
76211;DHT22;65003;49.518;11.280;2023-11-19T11:54:35;15.90;99.90
76211;DHT22;65003;49.518;11.280;2023-11-19T11:57:07;15.50;99.90
76211;DHT22;65003;49.518;11.280;2023-11-19T11:59:42;15.30;99.90
76211;DHT22;65003;49.518;11.280;2023-11-19T12:02:04;15.10;99.90
76211;DHT22;65003;49.518;11.280;2023-11-19T12:04:30;14.90;99.90
76211;DHT22;65003;49.518;11.280;2023-11-19T12:07:04;14.80;99.90
76211;DHT22;65003;49.518;11.280;2023-11-19T12:09:30;14.80;99.90
76211;DHT22;65003;49.518;11.280;2023-11-19T12:19:52;14.40;99.90
76211;DHT22;65003;49.518;11.280;2023-11-19T12:22:19;14.30;99.90
76211;DHT22;65003;49.518;11.280;2023-11-19T12:24:45;14.20;99.90
76211;DHT22;65003;49.518;11.280;2023-11-19T12:27:12;14.10;99.90
76211;DHT22;65003;49.518;11.280;2023-11-19T12:29:42;14.00;99.90
76211;DHT22;65003;49.518;11.280;2023-11-19T12:32:08;13.90;99.90
76211;DHT22;65003;49.518;11.280;2023-11-19T12:34:34;13.90;99.90
76211;DHT22;65003;49.518;11.280;2023-11-19T12:37:03;13.90;99.90
76211;DHT22;65003;49.518;11.280;2023-11-19T12:39:29;13.90;99.90
76211;DHT22;65003;49.518;11.280;2023-11-19T12:41:54;13.80;99.90
76211;DHT22;65003;49.518;11.280;2023-11-19T12:44:21;13.60;99.90
76211;DHT22;65003;49.518;11.280;2023-11-19T12:46:58;13.40;99.90
76211;DHT22;65003;49.518;11.280;2023-11-19T12:49:14;13.30;99.90
76211;DHT22;65003;49.518;11.280;2023-11-19T12:51:41;13.20;99.90
76211;DHT22;65003;49.518;11.280;2023-11-19T12:54:07;13.20;99.90
76211;DHT22;65003;49.518;11.280;2023-11-19T12:56:34;13.20;99.90
76211;DHT22;65003;49.518;11.280;2023-11-19T12:59:09;13.20;99.90
76211;DHT22;65003;49.518;11.280;2023-11-19T13:01:27;13.20;99.90
76211;DHT22;65003;49.518;11.280;2023-11-19T13:03:53;13.20;99.90
76211;DHT22;65003;49.518;11.280;2023-11-19T13:06:20;13.10;99.90
76211;DHT22;65003;49.518;11.280;2023-11-19T13:08:48;13.20;99.90
76211;DHT22;65003;49.518;11.280;2023-11-19T13:11:19;13.20;99.90
76211;DHT22;65003;49.518;11.280;2023-11-19T13:13:56;13.20;99.90
76211;DHT22;65003;49.518;11.280;2023-11-19T13:16:22;13.30;99.90
76211;DHT22;65003;49.518;11.280;2023-11-19T13:18:48;13.40;99.90
76211;DHT22;65003;49.518;11.280;2023-11-19T13:21:15;13.40;99.90
76211;DHT22;65003;49.518;11.280;2023-11-19T13:23:42;13.40;99.90
76211;DHT22;65003;49.518;11.280;2023-11-19T13:26:08;13.40;99.90
76211;DHT22;65003;49.518;11.280;2023-11-19T13:28:35;13.40;99.90
76211;DHT22;65003;49.518;11.280;2023-11-19T13:31:01;13.40;99.90
76211;DHT22;65003;49.518;11.280;2023-11-19T13:33:28;13.30;99.90
76211;DHT22;65003;49.518;11.280;2023-11-19T13:35:55;13.30;99.90
76211;DHT22;65003;49.518;11.280;2023-11-19T13:38:21;13.20;99.90
76211;DHT22;65003;49.518;11.280;2023-11-19T13:40:48;13.20;99.90
76211;DHT22;65003;49.518;11.280;2023-11-19T13:43:14;13.20;99.90
76211;DHT22;65003;49.518;11.280;2023-11-19T13:45:41;13.20;99.90
76211;DHT22;65003;49.518;11.280;2023-11-19T13:48:08;13.20;99.90
76211;DHT22;65003;49.518;11.280;2023-11-19T13:50:34;13.20;99.90
76211;DHT22;65003;49.518;11.280;2023-11-19T13:53:01;13.10;99.90
76211;DHT22;65003;49.518;11.280;2023-11-19T13:55:27;13.10;99.90
76211;DHT22;65003;49.518;11.280;2023-11-19T13:57:54;13.20;99.90
76211;DHT22;65003;49.518;11.280;2023-11-19T14:00:21;13.20;99.90
76211;DHT22;65003;49.518;11.280;2023-11-19T14:02:47;13.20;99.90
76211;DHT22;65003;49.518;11.280;2023-11-19T14:05:14;13.10;99.90
76211;DHT22;65003;49.518;11.280;2023-11-19T14:07:41;13.10;99.90
76211;DHT22;65003;49.518;11.280;2023-11-19T14:10:07;13.10;99.90
76211;DHT22;65003;49.518;11.280;2023-11-19T14:12:34;13.10;99.90
76211;DHT22;65003;49.518;11.280;2023-11-19T14:15:00;13.20;99.90
76211;DHT22;65003;49.518;11.280;2023-11-19T14:17:27;13.30;99.90
76211;DHT22;65003;49.518;11.280;2023-11-19T14:19:54;13.20;99.90
76211;DHT22;65003;49.518;11.280;2023-11-19T14:22:20;13.20;99.90
76211;DHT22;65003;49.518;11.280;2023-11-19T14:24:47;13.20;99.90
76211;DHT22;65003;49.518;11.280;2023-11-19T14:27:13;13.10;99.90
76211;DHT22;65003;49.518;11.280;2023-11-19T14:29:40;13.20;99.90
76211;DHT22;65003;49.518;11.280;2023-11-19T14:32:07;13.30;99.90
76211;DHT22;65003;49.518;11.280;2023-11-19T14:34:33;13.40;99.90
76211;DHT22;65003;49.518;11.280;2023-11-19T14:37:00;13.60;99.90
76211;DHT22;65003;49.518;11.280;2023-11-19T14:39:26;13.70;99.90
76211;DHT22;65003;49.518;11.280;2023-11-19T14:41:53;13.80;99.90
76211;DHT22;65003;49.518;11.280;2023-11-19T14:44:20;13.90;99.90
76211;DHT22;65003;49.518;11.280;2023-11-19T14:46:46;13.90;99.90
76211;DHT22;65003;49.518;11.280;2023-11-19T14:49:13;14.00;99.90
76211;DHT22;65003;49.518;11.280;2023-11-19T14:51:39;14.10;99.90
76211;DHT22;65003;49.518;11.280;2023-11-19T14:54:06;14.10;99.90
76211;DHT22;65003;49.518;11.280;2023-11-19T14:56:33;14.10;99.90
76211;DHT22;65003;49.518;11.280;2023-11-19T14:58:59;14.10;99.90
76211;DHT22;65003;49.518;11.280;2023-11-19T15:01:26;14.10;99.80
76211;DHT22;65003;49.518;11.280;2023-11-19T15:03:52;14.00;99.90
76211;DHT22;65003;49.518;11.280;2023-11-19T15:06:22;13.90;99.90
76211;DHT22;65003;49.518;11.280;2023-11-19T15:08:45;13.90;99.90
76211;DHT22;65003;49.518;11.280;2023-11-19T15:11:12;13.80;99.90
76211;DHT22;65003;49.518;11.280;2023-11-19T15:13:39;13.80;99.90
76211;DHT22;65003;49.518;11.280;2023-11-19T15:16:06;13.70;99.90
76211;DHT22;65003;49.518;11.280;2023-11-19T15:18:33;13.80;99.90
76211;DHT22;65003;49.518;11.280;2023-11-19T15:20:59;13.80;99.90
76211;DHT22;65003;49.518;11.280;2023-11-19T15:23:26;13.60;99.90
76211;DHT22;65003;49.518;11.280;2023-11-19T15:25:52;13.50;99.90
76211;DHT22;65003;49.518;11.280;2023-11-19T15:28:19;13.30;99.90
76211;DHT22;65003;49.518;11.280;2023-11-19T15:30:45;13.20;99.90
76211;DHT22;65003;49.518;11.280;2023-11-19T15:33:12;13.00;99.90